Weather at Lomas del Espinillo Airport

Public forecast

Using degrees Celsius for public forecast. Weather courtesy of forecast.io.

Closest aviation weather report (METAR) to Lomas del Espinillo Airport

Report is more than 6 hours old.

Closest report is Escuela de Aviación Militar (Military Aviation School) Airport, 39.1 nm (72.4 km) N. Retrieved 2021/12/14 19:50 UTC (1 month ago):

SACE 141950Z 18018G29KT 9999 BKN025 FEW045CB 29/18 Q1013

Closest aviation forecast (TAF) to Lomas del Espinillo Airport

Closest forecast is Ingeniero Ambrosio Taravella Airport, 45.9 nm (85.1 km) N. Retrieved 2022/01/22 18:29 UTC (2 hours ago):

TAF SACO 221700Z 2218/2318 20010KT 7000 BR DZ BKN007 TX25/2318Z TN22/2309Z BECMG 2222/2301 18015KT 5000 TSRA SCT007 BKN040 FEW045CB TEMPO 2308/2309 18005 6000 SCT015 SCT030 FEW050CB